createdAt,value
2022-10-11T00:00:15.505Z,1
2022-10-11T00:05:15.539Z,0
2022-10-11T00:10:15.559Z,0
2022-10-11T00:15:15.618Z,2
2022-10-11T00:20:15.449Z,2
2022-10-11T00:25:15.649Z,0
2022-10-11T00:30:15.601Z,0
2022-10-11T00:35:15.722Z,0
2022-10-11T00:40:15.667Z,2
2022-10-11T00:45:15.661Z,2
2022-10-11T00:50:15.712Z,3
2022-10-11T00:55:15.623Z,2
2022-10-11T01:00:15.974Z,1
2022-10-11T01:05:29.312Z,2
2022-10-11T01:10:15.763Z,2
2022-10-11T01:15:15.648Z,3
2022-10-11T01:20:15.664Z,1
2022-10-11T01:25:15.677Z,1
2022-10-11T01:30:15.853Z,1
2022-10-11T01:35:15.776Z,3
2022-10-11T01:40:15.816Z,2
2022-10-11T01:45:15.693Z,1
2022-10-11T01:50:15.694Z,0
2022-10-11T01:55:15.735Z,2
2022-10-11T02:00:15.797Z,2
2022-10-11T02:05:15.818Z,1
2022-10-11T02:10:15.803Z,1
2022-10-11T02:15:16.794Z,0
2022-10-11T02:20:16.968Z,1
2022-10-11T02:25:16.834Z,3
2022-10-11T02:30:16.952Z,3
2022-10-11T02:35:16.889Z,3
2022-10-11T02:40:16.838Z,3
2022-10-11T02:45:17.062Z,3
2022-10-11T02:50:16.875Z,3
2022-10-11T02:55:16.807Z,2
2022-10-11T03:00:16.985Z,3
2022-10-11T03:05:16.873Z,3
2022-10-11T03:10:16.882Z,1
2022-10-11T03:15:17.003Z,1
2022-10-11T03:20:16.879Z,1
2022-10-11T03:25:17.032Z,0
2022-10-11T03:30:18.294Z,3
2022-10-11T03:35:16.949Z,2
2022-10-11T03:40:17.003Z,1
2022-10-11T03:45:16.973Z,1
2022-10-11T03:50:17.003Z,2
2022-10-11T03:55:16.987Z,2
2022-10-11T04:00:16.053Z,1
2022-10-11T04:05:15.983Z,0
2022-10-11T04:10:16.075Z,1
2022-10-11T04:15:16.016Z,0
2022-10-11T04:20:16.015Z,0
2022-10-11T04:25:16.035Z,0
2022-10-11T04:30:16.072Z,0
2022-10-11T04:35:16.185Z,0
2022-10-11T04:40:16.090Z,0
2022-10-11T04:45:16.247Z,0
2022-10-11T04:50:16.136Z,0
2022-10-11T04:55:16.258Z,0
2022-10-11T05:00:16.237Z,0
2022-10-11T05:05:16.117Z,0
2022-10-11T05:10:16.139Z,0
2022-10-11T05:15:16.118Z,0
2022-10-11T05:20:16.203Z,1
2022-10-11T05:25:16.256Z,2
2022-10-11T05:30:16.132Z,1
2022-10-11T05:35:16.186Z,1
2022-10-11T05:40:16.276Z,1
2022-10-11T05:45:16.257Z,0
2022-10-11T05:50:19.650Z,0
2022-10-11T05:55:16.264Z,0
2022-10-11T06:00:16.245Z,0
2022-10-11T06:05:16.259Z,0
2022-10-11T06:10:16.214Z,1
2022-10-11T06:15:17.435Z,0
2022-10-11T06:20:17.214Z,2
2022-10-11T06:25:17.331Z,2
2022-10-11T06:30:17.538Z,1
2022-10-11T06:35:17.308Z,0
2022-10-11T06:40:17.289Z,0
2022-10-11T06:45:17.343Z,0
2022-10-11T06:50:29.956Z,0
2022-10-11T06:55:17.301Z,1
2022-10-11T07:00:17.363Z,1
2022-10-11T07:05:17.369Z,1
2022-10-11T07:10:15.328Z,0
2022-10-11T07:15:15.382Z,0
2022-10-11T07:20:15.408Z,0
2022-10-11T07:25:15.369Z,0
2022-10-11T07:30:15.459Z,0
2022-10-11T07:35:15.416Z,0
2022-10-11T07:40:15.650Z,1
2022-10-11T07:45:15.497Z,1
2022-10-11T07:50:15.403Z,1
2022-10-11T07:55:15.521Z,2
2022-10-11T08:00:15.575Z,0
2022-10-11T08:05:15.542Z,0
2022-10-11T08:10:15.546Z,1
2022-10-11T08:15:15.571Z,1
2022-10-11T08:20:15.525Z,1
2022-10-11T08:25:15.500Z,1
2022-10-11T08:30:15.509Z,2
2022-10-11T08:35:15.586Z,2
2022-10-11T08:40:15.597Z,1
2022-10-11T08:45:15.558Z,0
2022-10-11T08:50:15.610Z,1
2022-10-11T08:55:15.543Z,2
2022-10-11T09:00:15.795Z,2
2022-10-11T09:05:15.776Z,2
2022-10-11T09:10:15.604Z,2
2022-10-11T09:15:15.597Z,1
2022-10-11T09:20:15.682Z,1
2022-10-11T09:25:15.673Z,0
2022-10-11T09:30:15.817Z,0
2022-10-11T09:35:15.802Z,0
2022-10-11T09:40:15.674Z,1
2022-10-11T09:45:15.673Z,2
2022-10-11T09:50:15.688Z,2
2022-10-11T09:55:19.589Z,1
2022-10-11T10:00:15.834Z,0
2022-10-11T10:05:15.748Z,0
2022-10-11T10:10:15.846Z,0
2022-10-11T10:15:15.762Z,0
2022-10-11T10:20:15.725Z,0
2022-10-11T10:25:15.761Z,0
2022-10-11T10:30:16.086Z,1
2022-10-11T10:35:15.871Z,0
2022-10-11T10:40:15.887Z,0
2022-10-11T10:45:20.822Z,0
2022-10-11T10:50:15.915Z,0
2022-10-11T10:55:15.920Z,0
2022-10-11T11:00:15.860Z,0
2022-10-11T11:05:15.942Z,0
2022-10-11T11:10:16.044Z,0
2022-10-11T11:15:15.903Z,0
2022-10-11T11:20:16.168Z,0
2022-10-11T11:25:16.165Z,0
2022-10-11T11:30:15.883Z,0
2022-10-11T11:35:15.877Z,0
2022-10-11T11:40:15.987Z,0
2022-10-11T11:45:16.037Z,0
2022-10-11T11:50:16.036Z,1
2022-10-11T11:55:15.986Z,0
2022-10-11T12:00:15.969Z,0
2022-10-11T12:05:16.129Z,0
2022-10-11T12:10:15.999Z,1
2022-10-11T12:15:16.097Z,1
2022-10-11T12:20:15.950Z,1
2022-10-11T12:25:18.599Z,1
2022-10-11T12:30:16.011Z,2
2022-10-11T12:35:16.156Z,2
2022-10-11T12:40:16.047Z,2
2022-10-11T12:45:16.393Z,2
2022-10-11T12:50:16.130Z,1
2022-10-11T12:55:16.039Z,1
2022-10-11T13:00:16.108Z,1
2022-10-11T13:05:16.090Z,2
2022-10-11T13:10:16.093Z,4
2022-10-11T13:15:16.101Z,5
2022-10-11T13:20:16.113Z,3
2022-10-11T13:25:16.160Z,3
2022-10-11T13:30:16.413Z,3
2022-10-11T13:35:18.678Z,2
2022-10-11T13:40:16.219Z,3
2022-10-11T13:45:16.190Z,3
2022-10-11T13:50:16.301Z,3
2022-10-11T13:55:16.511Z,3
2022-10-11T14:00:16.274Z,3
2022-10-11T14:05:16.314Z,3
2022-10-11T14:10:16.529Z,3
2022-10-11T14:15:16.360Z,4
2022-10-11T14:20:16.191Z,4
2022-10-11T14:25:16.444Z,4
2022-10-11T14:30:31.852Z,3
2022-10-11T14:35:16.234Z,4
2022-10-11T14:40:16.297Z,3
2022-10-11T14:45:16.448Z,4
2022-10-11T14:50:16.321Z,3
2022-10-11T14:55:16.435Z,3
2022-10-11T15:00:16.281Z,3
2022-10-11T15:05:16.327Z,2
2022-10-11T15:10:16.758Z,2
2022-10-11T15:15:17.014Z,3
2022-10-11T15:20:16.362Z,3
2022-10-11T15:25:16.363Z,2
2022-10-11T15:30:16.357Z,3
2022-10-11T15:35:16.491Z,4
2022-10-11T15:40:16.486Z,4
2022-10-11T15:45:16.368Z,4
2022-10-11T15:50:16.462Z,5
2022-10-11T15:55:16.455Z,4
2022-10-11T16:00:21.274Z,4
2022-10-11T16:05:16.442Z,6
2022-10-11T16:10:16.840Z,3
2022-10-11T16:15:16.427Z,4
2022-10-11T16:20:16.400Z,3
2022-10-11T16:25:16.927Z,3
2022-10-11T16:30:16.560Z,4
2022-10-11T16:35:16.512Z,4
2022-10-11T16:40:16.587Z,5
2022-10-11T16:45:16.658Z,2
2022-10-11T16:50:16.551Z,3
2022-10-11T16:55:16.500Z,4
2022-10-11T17:00:16.554Z,3
2022-10-11T17:05:16.527Z,4
2022-10-11T17:10:16.571Z,4
2022-10-11T17:15:16.648Z,3
2022-10-11T17:20:16.842Z,3
2022-10-11T17:25:16.559Z,4
2022-10-11T17:30:16.627Z,4
2022-10-11T17:35:16.825Z,4
2022-10-11T17:40:16.725Z,3
2022-10-11T17:45:16.635Z,4
2022-10-11T17:50:16.682Z,4
2022-10-11T17:55:16.723Z,3
2022-10-11T18:00:16.618Z,3
2022-10-11T18:05:16.689Z,2
2022-10-11T18:10:16.766Z,3
2022-10-11T18:15:16.711Z,3
2022-10-11T18:20:16.706Z,2
2022-10-11T18:25:16.763Z,3
2022-10-11T18:30:17.065Z,3
2022-10-11T18:35:16.801Z,3
2022-10-11T18:40:16.788Z,2
2022-10-11T18:45:16.884Z,3
2022-10-11T18:50:16.900Z,3
2022-10-11T18:55:16.899Z,2
2022-10-11T19:00:39.495Z,2
2022-10-11T19:05:16.899Z,1
2022-10-11T19:10:16.823Z,1
2022-10-11T19:15:16.974Z,1
2022-10-11T19:20:16.887Z,3
2022-10-11T19:25:16.879Z,2
2022-10-11T19:30:16.829Z,2
2022-10-11T19:35:19.965Z,1
2022-10-11T19:40:16.913Z,0
2022-10-11T19:45:16.938Z,1
2022-10-11T19:50:16.918Z,1
2022-10-11T19:55:16.905Z,2
2022-10-11T20:00:16.892Z,3
2022-10-11T20:05:16.939Z,4
2022-10-11T20:10:16.939Z,5
2022-10-11T20:15:16.996Z,7
2022-10-11T20:20:17.036Z,4
2022-10-11T20:25:16.982Z,4
2022-10-11T20:30:16.937Z,3
2022-10-11T20:35:16.996Z,4
2022-10-11T20:40:17.058Z,5
2022-10-11T20:45:17.154Z,3
2022-10-11T20:50:22.168Z,5
2022-10-11T20:55:17.069Z,4
2022-10-11T21:00:17.093Z,6
2022-10-11T21:05:17.007Z,7
2022-10-11T21:10:17.049Z,7
2022-10-11T21:15:17.098Z,5
2022-10-11T21:20:17.226Z,3
2022-10-11T21:25:17.147Z,3
2022-10-11T21:30:17.283Z,3
2022-10-11T21:35:17.166Z,4
2022-10-11T21:40:17.229Z,6
2022-10-11T21:45:17.151Z,6
2022-10-11T21:50:17.158Z,4
2022-10-11T21:55:17.170Z,4
2022-10-11T22:00:17.208Z,4
2022-10-11T22:05:17.134Z,3
2022-10-11T22:10:17.287Z,2
2022-10-11T22:15:17.176Z,2
2022-10-11T22:20:17.339Z,3
2022-10-11T22:25:17.437Z,3
2022-10-11T22:30:17.335Z,4
2022-10-11T22:35:17.282Z,4
2022-10-11T22:40:17.236Z,3
2022-10-11T22:45:17.365Z,4
2022-10-11T22:50:17.219Z,4
2022-10-11T22:55:20.081Z,3
2022-10-11T23:00:17.471Z,2
2022-10-11T23:05:17.278Z,2
2022-10-11T23:10:17.468Z,2
2022-10-11T23:15:17.276Z,2
2022-10-11T23:20:17.507Z,4
2022-10-11T23:25:17.362Z,3
2022-10-11T23:30:17.363Z,3
2022-10-11T23:35:17.557Z,2
2022-10-11T23:40:15.649Z,1
2022-10-11T23:45:15.457Z,2
2022-10-11T23:50:15.566Z,3
2022-10-11T23:55:15.416Z,3
